sensor_id;sensor_type;location;lat;lon;timestamp;P1;durP1;ratioP1;P2;durP2;ratioP2
56593;SDS011;42474;51.660;5.824;2022-08-25T00:03:03;7.4;;;6.5;;
56593;SDS011;42474;51.660;5.824;2022-08-25T00:08:03;6.7;;;6.2;;
56593;SDS011;42474;51.660;5.824;2022-08-25T00:13:03;7.3;;;6.0;;
56593;SDS011;42474;51.660;5.824;2022-08-25T00:18:03;8.5;;;6.7;;
56593;SDS011;42474;51.660;5.824;2022-08-25T00:23:03;7.7;;;6.7;;
56593;SDS011;42474;51.660;5.824;2022-08-25T00:28:03;6.7;;;5.7;;
56593;SDS011;42474;51.660;5.824;2022-08-25T00:33:03;6.6;;;5.4;;
56593;SDS011;42474;51.660;5.824;2022-08-25T00:38:03;6.9;;;5.4;;
56593;SDS011;42474;51.660;5.824;2022-08-25T00:43:03;6.6;;;5.6;;
56593;SDS011;42474;51.660;5.824;2022-08-25T00:48:03;4.9;;;4.4;;
56593;SDS011;42474;51.660;5.824;2022-08-25T00:53:03;5.2;;;4.6;;
56593;SDS011;42474;51.660;5.824;2022-08-25T00:58:04;5.9;;;4.7;;
56593;SDS011;42474;51.660;5.824;2022-08-25T01:03:03;6.9;;;4.7;;
56593;SDS011;42474;51.660;5.824;2022-08-25T01:08:03;6.6;;;4.3;;
56593;SDS011;42474;51.660;5.824;2022-08-25T01:13:04;5.6;;;4.7;;
56593;SDS011;42474;51.660;5.824;2022-08-25T01:18:03;8.2;;;5.0;;
56593;SDS011;42474;51.660;5.824;2022-08-25T01:23:03;7.7;;;5.0;;
56593;SDS011;42474;51.660;5.824;2022-08-25T01:28:03;6.6;;;4.6;;
56593;SDS011;42474;51.660;5.824;2022-08-25T01:33:03;6.2;;;4.4;;
56593;SDS011;42474;51.660;5.824;2022-08-25T01:38:04;6.7;;;4.8;;
56593;SDS011;42474;51.660;5.824;2022-08-25T01:43:26;8.2;;;5.2;;
56593;SDS011;42474;51.660;5.824;2022-08-25T01:48:03;6.3;;;4.8;;
56593;SDS011;42474;51.660;5.824;2022-08-25T01:53:10;8.9;;;5.5;;
56593;SDS011;42474;51.660;5.824;2022-08-25T01:58:03;6.9;;;5.1;;
56593;SDS011;42474;51.660;5.824;2022-08-25T02:03:03;6.1;;;4.7;;
56593;SDS011;42474;51.660;5.824;2022-08-25T02:08:03;5.7;;;4.6;;
56593;SDS011;42474;51.660;5.824;2022-08-25T02:13:03;5.8;;;4.8;;
56593;SDS011;42474;51.660;5.824;2022-08-25T02:18:03;5.5;;;4.8;;
56593;SDS011;42474;51.660;5.824;2022-08-25T02:23:03;5.0;;;4.5;;
56593;SDS011;42474;51.660;5.824;2022-08-25T02:28:03;6.2;;;4.9;;
56593;SDS011;42474;51.660;5.824;2022-08-25T02:33:03;5.7;;;4.5;;
56593;SDS011;42474;51.660;5.824;2022-08-25T02:38:03;5.8;;;5.0;;
56593;SDS011;42474;51.660;5.824;2022-08-25T02:43:03;10.7;;;5.2;;
56593;SDS011;42474;51.660;5.824;2022-08-25T02:48:03;6.4;;;5.3;;
56593;SDS011;42474;51.660;5.824;2022-08-25T02:53:03;7.9;;;5.4;;
56593;SDS011;42474;51.660;5.824;2022-08-25T02:58:03;7.4;;;5.8;;
56593;SDS011;42474;51.660;5.824;2022-08-25T03:03:03;6.6;;;5.9;;
56593;SDS011;42474;51.660;5.824;2022-08-25T03:08:03;7.7;;;6.1;;
56593;SDS011;42474;51.660;5.824;2022-08-25T03:13:03;8.0;;;6.4;;
56593;SDS011;42474;51.660;5.824;2022-08-25T03:18:03;6.7;;;5.8;;
56593;SDS011;42474;51.660;5.824;2022-08-25T03:23:03;8.4;;;6.4;;
56593;SDS011;42474;51.660;5.824;2022-08-25T03:28:03;6.8;;;6.0;;
56593;SDS011;42474;51.660;5.824;2022-08-25T03:33:03;6.8;;;6.2;;
56593;SDS011;42474;51.660;5.824;2022-08-25T03:38:03;8.0;;;6.4;;
56593;SDS011;42474;51.660;5.824;2022-08-25T03:43:03;7.9;;;6.8;;
56593;SDS011;42474;51.660;5.824;2022-08-25T03:48:03;8.9;;;6.6;;
56593;SDS011;42474;51.660;5.824;2022-08-25T03:53:03;7.0;;;6.2;;
56593;SDS011;42474;51.660;5.824;2022-08-25T03:58:03;11.3;;;6.6;;
56593;SDS011;42474;51.660;5.824;2022-08-25T04:03:03;9.8;;;6.4;;
56593;SDS011;42474;51.660;5.824;2022-08-25T04:08:03;9.2;;;6.4;;
56593;SDS011;42474;51.660;5.824;2022-08-25T04:13:03;7.2;;;6.5;;
56593;SDS011;42474;51.660;5.824;2022-08-25T04:18:03;7.6;;;6.3;;
56593;SDS011;42474;51.660;5.824;2022-08-25T04:23:03;9.3;;;6.6;;
56593;SDS011;42474;51.660;5.824;2022-08-25T04:28:03;9.9;;;6.4;;
56593;SDS011;42474;51.660;5.824;2022-08-25T04:33:03;8.1;;;5.9;;
56593;SDS011;42474;51.660;5.824;2022-08-25T04:38:03;7.0;;;6.1;;
56593;SDS011;42474;51.660;5.824;2022-08-25T04:43:03;6.6;;;5.6;;
56593;SDS011;42474;51.660;5.824;2022-08-25T04:48:03;9.2;;;5.7;;
56593;SDS011;42474;51.660;5.824;2022-08-25T04:53:03;8.4;;;5.2;;
56593;SDS011;42474;51.660;5.824;2022-08-25T04:58:03;8.7;;;5.3;;
56593;SDS011;42474;51.660;5.824;2022-08-25T05:03:03;8.7;;;5.5;;
56593;SDS011;42474;51.660;5.824;2022-08-25T05:08:03;8.8;;;5.7;;
56593;SDS011;42474;51.660;5.824;2022-08-25T05:13:03;8.1;;;6.1;;
56593;SDS011;42474;51.660;5.824;2022-08-25T05:18:03;7.8;;;5.2;;
56593;SDS011;42474;51.660;5.824;2022-08-25T05:23:03;6.2;;;5.5;;
56593;SDS011;42474;51.660;5.824;2022-08-25T05:28:03;8.2;;;5.2;;
56593;SDS011;42474;51.660;5.824;2022-08-25T05:33:03;8.1;;;5.2;;
56593;SDS011;42474;51.660;5.824;2022-08-25T05:38:03;9.2;;;5.0;;
56593;SDS011;42474;51.660;5.824;2022-08-25T05:43:03;6.4;;;5.0;;
56593;SDS011;42474;51.660;5.824;2022-08-25T05:48:03;6.6;;;5.4;;
56593;SDS011;42474;51.660;5.824;2022-08-25T05:53:03;7.3;;;5.3;;
56593;SDS011;42474;51.660;5.824;2022-08-25T05:58:03;10.4;;;5.8;;
56593;SDS011;42474;51.660;5.824;2022-08-25T06:03:03;10.0;;;5.9;;
56593;SDS011;42474;51.660;5.824;2022-08-25T06:08:03;12.0;;;6.0;;
56593;SDS011;42474;51.660;5.824;2022-08-25T06:13:03;10.6;;;5.9;;
56593;SDS011;42474;51.660;5.824;2022-08-25T06:18:03;9.8;;;5.5;;
56593;SDS011;42474;51.660;5.824;2022-08-25T06:23:03;8.0;;;5.8;;
56593;SDS011;42474;51.660;5.824;2022-08-25T06:28:03;8.2;;;5.6;;
56593;SDS011;42474;51.660;5.824;2022-08-25T06:33:03;7.5;;;5.9;;
56593;SDS011;42474;51.660;5.824;2022-08-25T06:38:03;7.1;;;5.6;;
56593;SDS011;42474;51.660;5.824;2022-08-25T06:43:03;9.1;;;5.6;;
56593;SDS011;42474;51.660;5.824;2022-08-25T06:48:03;6.1;;;4.9;;
56593;SDS011;42474;51.660;5.824;2022-08-25T06:53:03;8.6;;;5.6;;
56593;SDS011;42474;51.660;5.824;2022-08-25T06:58:03;6.7;;;4.6;;
56593;SDS011;42474;51.660;5.824;2022-08-25T07:03:03;6.8;;;4.8;;
56593;SDS011;42474;51.660;5.824;2022-08-25T07:08:03;8.6;;;4.7;;
56593;SDS011;42474;51.660;5.824;2022-08-25T07:13:03;7.2;;;4.9;;
56593;SDS011;42474;51.660;5.824;2022-08-25T07:18:03;7.1;;;4.6;;
56593;SDS011;42474;51.660;5.824;2022-08-25T07:23:03;4.8;;;3.8;;
56593;SDS011;42474;51.660;5.824;2022-08-25T07:28:03;5.9;;;3.7;;
56593;SDS011;42474;51.660;5.824;2022-08-25T07:33:03;5.9;;;3.8;;
56593;SDS011;42474;51.660;5.824;2022-08-25T07:38:04;7.1;;;3.7;;
56593;SDS011;42474;51.660;5.824;2022-08-25T07:43:04;5.6;;;3.6;;
56593;SDS011;42474;51.660;5.824;2022-08-25T07:48:05;5.3;;;3.3;;
56593;SDS011;42474;51.660;5.824;2022-08-25T07:53:04;5.6;;;3.3;;
56593;SDS011;42474;51.660;5.824;2022-08-25T07:58:04;4.5;;;3.0;;
56593;SDS011;42474;51.660;5.824;2022-08-25T08:03:04;5.0;;;3.2;;
56593;SDS011;42474;51.660;5.824;2022-08-25T08:08:03;6.4;;;3.4;;
56593;SDS011;42474;51.660;5.824;2022-08-25T08:13:03;6.3;;;3.1;;
56593;SDS011;42474;51.660;5.824;2022-08-25T08:18:03;5.8;;;3.3;;
56593;SDS011;42474;51.660;5.824;2022-08-25T08:23:03;5.8;;;3.8;;
56593;SDS011;42474;51.660;5.824;2022-08-25T08:28:03;4.4;;;3.3;;
56593;SDS011;42474;51.660;5.824;2022-08-25T08:33:03;4.3;;;2.8;;
56593;SDS011;42474;51.660;5.824;2022-08-25T08:38:03;4.7;;;2.8;;
56593;SDS011;42474;51.660;5.824;2022-08-25T08:43:19;4.0;;;2.7;;
56593;SDS011;42474;51.660;5.824;2022-08-25T08:48:09;4.3;;;2.8;;
56593;SDS011;42474;51.660;5.824;2022-08-25T08:53:04;5.2;;;2.5;;
56593;SDS011;42474;51.660;5.824;2022-08-25T08:58:07;4.9;;;2.5;;
56593;SDS011;42474;51.660;5.824;2022-08-25T09:03:07;4.2;;;2.6;;
56593;SDS011;42474;51.660;5.824;2022-08-25T09:08:04;5.5;;;2.8;;
56593;SDS011;42474;51.660;5.824;2022-08-25T09:13:16;7.9;;;2.9;;
56593;SDS011;42474;51.660;5.824;2022-08-25T09:18:53;6.5;;;2.9;;
56593;SDS011;42474;51.660;5.824;2022-08-25T09:23:40;6.0;;;2.9;;
56593;SDS011;42474;51.660;5.824;2022-08-25T09:28:39;4.4;;;2.5;;
56593;SDS011;42474;51.660;5.824;2022-08-25T09:33:03;7.6;;;2.9;;
56593;SDS011;42474;51.660;5.824;2022-08-25T09:38:06;5.8;;;3.0;;
56593;SDS011;42474;51.660;5.824;2022-08-25T09:43:23;5.1;;;3.0;;
56593;SDS011;42474;51.660;5.824;2022-08-25T09:48:03;8.1;;;3.0;;
56593;SDS011;42474;51.660;5.824;2022-08-25T09:53:12;6.8;;;3.4;;
56593;SDS011;42474;51.660;5.824;2022-08-25T09:58:11;6.4;;;2.5;;
56593;SDS011;42474;51.660;5.824;2022-08-25T10:03:12;4.5;;;2.7;;
56593;SDS011;42474;51.660;5.824;2022-08-25T10:08:09;5.7;;;2.8;;
56593;SDS011;42474;51.660;5.824;2022-08-25T10:13:03;5.1;;;2.7;;
56593;SDS011;42474;51.660;5.824;2022-08-25T10:18:24;3.0;;;2.2;;
56593;SDS011;42474;51.660;5.824;2022-08-25T10:23:10;3.8;;;2.3;;
56593;SDS011;42474;51.660;5.824;2022-08-25T10:28:56;3.6;;;1.9;;
56593;SDS011;42474;51.660;5.824;2022-08-25T10:33:28;2.8;;;2.2;;
56593;SDS011;42474;51.660;5.824;2022-08-25T10:38:36;4.7;;;2.0;;
56593;SDS011;42474;51.660;5.824;2022-08-25T10:43:32;2.5;;;1.7;;
56593;SDS011;42474;51.660;5.824;2022-08-25T10:48:33;3.4;;;2.1;;
56593;SDS011;42474;51.660;5.824;2022-08-25T10:53:53;3.1;;;2.0;;
56593;SDS011;42474;51.660;5.824;2022-08-25T10:58:36;3.2;;;2.0;;
56593;SDS011;42474;51.660;5.824;2022-08-25T11:03:49;2.9;;;2.0;;
56593;SDS011;42474;51.660;5.824;2022-08-25T11:08:05;4.5;;;1.6;;
56593;SDS011;42474;51.660;5.824;2022-08-25T11:13:05;3.4;;;1.8;;
56593;SDS011;42474;51.660;5.824;2022-08-25T11:18:08;2.4;;;1.5;;
56593;SDS011;42474;51.660;5.824;2022-08-25T11:23:10;4.6;;;2.1;;
56593;SDS011;42474;51.660;5.824;2022-08-25T11:28:22;3.9;;;1.5;;
56593;SDS011;42474;51.660;5.824;2022-08-25T11:33:04;1.9;;;1.4;;
56593;SDS011;42474;51.660;5.824;2022-08-25T11:38:39;1.9;;;1.1;;
56593;SDS011;42474;51.660;5.824;2022-08-25T11:43:48;3.5;;;1.3;;
56593;SDS011;42474;51.660;5.824;2022-08-25T11:49:19;2.9;;;1.6;;
56593;SDS011;42474;51.660;5.824;2022-08-25T11:53:17;3.0;;;1.4;;
56593;SDS011;42474;51.660;5.824;2022-08-25T11:58:24;2.7;;;1.6;;
56593;SDS011;42474;51.660;5.824;2022-08-25T12:08:05;3.3;;;1.6;;
56593;SDS011;42474;51.660;5.824;2022-08-25T12:13:04;3.5;;;1.9;;
56593;SDS011;42474;51.660;5.824;2022-08-25T12:18:09;3.9;;;1.7;;
56593;SDS011;42474;51.660;5.824;2022-08-25T12:23:03;2.6;;;1.3;;
56593;SDS011;42474;51.660;5.824;2022-08-25T12:28:04;2.6;;;1.7;;
56593;SDS011;42474;51.660;5.824;2022-08-25T12:33:57;3.3;;;1.7;;
56593;SDS011;42474;51.660;5.824;2022-08-25T12:38:09;3.7;;;1.6;;
56593;SDS011;42474;51.660;5.824;2022-08-25T12:43:05;3.2;;;1.7;;
56593;SDS011;42474;51.660;5.824;2022-08-25T12:48:52;3.3;;;1.9;;
56593;SDS011;42474;51.660;5.824;2022-08-25T12:53:06;4.8;;;2.0;;
56593;SDS011;42474;51.660;5.824;2022-08-25T12:58:03;3.3;;;1.8;;
56593;SDS011;42474;51.660;5.824;2022-08-25T13:04:48;3.0;;;1.9;;
56593;SDS011;42474;51.660;5.824;2022-08-25T13:10:55;3.2;;;1.7;;
56593;SDS011;42474;51.660;5.824;2022-08-25T13:14:43;2.9;;;1.8;;
56593;SDS011;42474;51.660;5.824;2022-08-25T13:18:13;3.0;;;1.6;;
56593;SDS011;42474;51.660;5.824;2022-08-25T13:23:03;2.7;;;1.8;;
56593;SDS011;42474;51.660;5.824;2022-08-25T13:28:04;5.1;;;1.6;;
56593;SDS011;42474;51.660;5.824;2022-08-25T13:33:14;2.8;;;1.7;;
56593;SDS011;42474;51.660;5.824;2022-08-25T13:38:17;2.7;;;1.7;;
56593;SDS011;42474;51.660;5.824;2022-08-25T13:43:04;2.4;;;1.4;;
56593;SDS011;42474;51.660;5.824;2022-08-25T13:48:03;4.0;;;1.4;;
56593;SDS011;42474;51.660;5.824;2022-08-25T13:53:04;2.3;;;1.3;;
56593;SDS011;42474;51.660;5.824;2022-08-25T13:58:04;3.3;;;1.6;;
56593;SDS011;42474;51.660;5.824;2022-08-25T14:03:03;2.1;;;1.5;;
56593;SDS011;42474;51.660;5.824;2022-08-25T14:08:04;3.0;;;1.6;;
56593;SDS011;42474;51.660;5.824;2022-08-25T14:13:16;4.5;;;1.4;;
56593;SDS011;42474;51.660;5.824;2022-08-25T14:18:05;2.0;;;1.4;;
56593;SDS011;42474;51.660;5.824;2022-08-25T14:23:06;1.5;;;1.2;;
56593;SDS011;42474;51.660;5.824;2022-08-25T14:28:04;3.0;;;1.3;;
56593;SDS011;42474;51.660;5.824;2022-08-25T14:33:04;2.3;;;1.3;;
56593;SDS011;42474;51.660;5.824;2022-08-25T14:38:06;2.2;;;1.3;;
56593;SDS011;42474;51.660;5.824;2022-08-25T14:43:03;1.8;;;1.3;;
56593;SDS011;42474;51.660;5.824;2022-08-25T14:48:04;2.0;;;1.5;;
56593;SDS011;42474;51.660;5.824;2022-08-25T14:53:03;3.5;;;1.7;;
56593;SDS011;42474;51.660;5.824;2022-08-25T14:58:03;2.3;;;1.5;;
56593;SDS011;42474;51.660;5.824;2022-08-25T15:03:03;1.8;;;1.2;;
56593;SDS011;42474;51.660;5.824;2022-08-25T15:08:03;1.4;;;1.2;;
56593;SDS011;42474;51.660;5.824;2022-08-25T15:13:03;3.6;;;1.3;;
56593;SDS011;42474;51.660;5.824;2022-08-25T15:18:03;2.8;;;1.3;;
56593;SDS011;42474;51.660;5.824;2022-08-25T15:23:03;3.4;;;1.4;;
56593;SDS011;42474;51.660;5.824;2022-08-25T15:28:04;3.4;;;2.1;;
56593;SDS011;42474;51.660;5.824;2022-08-25T15:33:03;3.3;;;1.5;;
56593;SDS011;42474;51.660;5.824;2022-08-25T15:38:03;2.4;;;1.2;;
56593;SDS011;42474;51.660;5.824;2022-08-25T15:43:04;3.2;;;1.5;;
56593;SDS011;42474;51.660;5.824;2022-08-25T15:48:03;4.2;;;1.3;;
56593;SDS011;42474;51.660;5.824;2022-08-25T15:53:03;2.0;;;1.5;;
56593;SDS011;42474;51.660;5.824;2022-08-25T15:58:03;3.2;;;1.4;;
56593;SDS011;42474;51.660;5.824;2022-08-25T16:03:03;1.9;;;1.4;;
56593;SDS011;42474;51.660;5.824;2022-08-25T16:08:03;1.7;;;1.4;;
56593;SDS011;42474;51.660;5.824;2022-08-25T16:13:03;4.6;;;1.5;;
56593;SDS011;42474;51.660;5.824;2022-08-25T16:18:04;3.3;;;1.6;;
56593;SDS011;42474;51.660;5.824;2022-08-25T16:23:03;4.6;;;1.5;;
56593;SDS011;42474;51.660;5.824;2022-08-25T16:28:03;2.4;;;1.6;;
56593;SDS011;42474;51.660;5.824;2022-08-25T16:33:03;4.8;;;1.4;;
56593;SDS011;42474;51.660;5.824;2022-08-25T16:38:03;1.6;;;1.3;;
56593;SDS011;42474;51.660;5.824;2022-08-25T16:43:03;2.5;;;1.4;;
56593;SDS011;42474;51.660;5.824;2022-08-25T16:48:04;2.6;;;1.6;;
56593;SDS011;42474;51.660;5.824;2022-08-25T16:53:03;4.4;;;1.7;;
56593;SDS011;42474;51.660;5.824;2022-08-25T16:58:03;4.3;;;1.8;;
56593;SDS011;42474;51.660;5.824;2022-08-25T17:03:04;3.3;;;1.7;;
56593;SDS011;42474;51.660;5.824;2022-08-25T17:08:03;3.7;;;1.5;;
56593;SDS011;42474;51.660;5.824;2022-08-25T17:13:04;6.1;;;1.7;;
56593;SDS011;42474;51.660;5.824;2022-08-25T17:18:03;3.8;;;1.7;;
56593;SDS011;42474;51.660;5.824;2022-08-25T17:23:04;5.3;;;1.7;;
56593;SDS011;42474;51.660;5.824;2022-08-25T17:28:03;4.3;;;1.7;;
56593;SDS011;42474;51.660;5.824;2022-08-25T17:33:03;3.9;;;1.7;;
56593;SDS011;42474;51.660;5.824;2022-08-25T17:38:03;4.5;;;2.1;;
56593;SDS011;42474;51.660;5.824;2022-08-25T17:43:04;15.6;;;3.0;;
56593;SDS011;42474;51.660;5.824;2022-08-25T17:48:04;5.7;;;2.4;;
56593;SDS011;42474;51.660;5.824;2022-08-25T17:53:03;3.5;;;2.0;;
56593;SDS011;42474;51.660;5.824;2022-08-25T17:58:03;4.6;;;2.3;;
56593;SDS011;42474;51.660;5.824;2022-08-25T18:03:05;4.9;;;2.6;;
56593;SDS011;42474;51.660;5.824;2022-08-25T18:08:04;5.9;;;2.7;;
56593;SDS011;42474;51.660;5.824;2022-08-25T18:13:03;9.1;;;3.6;;
56593;SDS011;42474;51.660;5.824;2022-08-25T18:18:04;5.6;;;2.5;;
56593;SDS011;42474;51.660;5.824;2022-08-25T18:23:03;3.9;;;2.2;;
56593;SDS011;42474;51.660;5.824;2022-08-25T18:28:03;4.3;;;1.9;;
56593;SDS011;42474;51.660;5.824;2022-08-25T18:33:04;4.5;;;2.3;;
56593;SDS011;42474;51.660;5.824;2022-08-25T18:38:03;4.3;;;2.5;;
56593;SDS011;42474;51.660;5.824;2022-08-25T18:43:04;3.9;;;3.0;;
56593;SDS011;42474;51.660;5.824;2022-08-25T18:48:03;6.3;;;3.6;;
56593;SDS011;42474;51.660;5.824;2022-08-25T18:53:04;5.6;;;3.6;;
56593;SDS011;42474;51.660;5.824;2022-08-25T18:58:04;7.2;;;3.8;;
56593;SDS011;42474;51.660;5.824;2022-08-25T19:03:04;5.8;;;3.4;;
56593;SDS011;42474;51.660;5.824;2022-08-25T19:08:06;9.0;;;3.7;;
56593;SDS011;42474;51.660;5.824;2022-08-25T19:13:04;7.5;;;3.4;;
56593;SDS011;42474;51.660;5.824;2022-08-25T19:18:04;6.5;;;3.3;;
56593;SDS011;42474;51.660;5.824;2022-08-25T19:23:03;8.2;;;3.4;;
56593;SDS011;42474;51.660;5.824;2022-08-25T19:28:05;7.7;;;3.8;;
56593;SDS011;42474;51.660;5.824;2022-08-25T19:33:04;7.6;;;3.4;;
56593;SDS011;42474;51.660;5.824;2022-08-25T19:38:07;7.2;;;4.3;;
56593;SDS011;42474;51.660;5.824;2022-08-25T19:43:04;7.0;;;3.8;;
56593;SDS011;42474;51.660;5.824;2022-08-25T19:48:03;5.0;;;3.4;;
56593;SDS011;42474;51.660;5.824;2022-08-25T19:53:04;5.6;;;3.8;;
56593;SDS011;42474;51.660;5.824;2022-08-25T19:58:03;4.7;;;4.2;;
56593;SDS011;42474;51.660;5.824;2022-08-25T20:03:04;7.3;;;5.2;;
56593;SDS011;42474;51.660;5.824;2022-08-25T20:08:04;10.1;;;7.0;;
56593;SDS011;42474;51.660;5.824;2022-08-25T20:13:08;9.0;;;6.9;;
56593;SDS011;42474;51.660;5.824;2022-08-25T20:18:03;9.5;;;8.1;;
56593;SDS011;42474;51.660;5.824;2022-08-25T20:23:04;12.2;;;8.2;;
56593;SDS011;42474;51.660;5.824;2022-08-25T20:28:03;10.5;;;9.1;;
56593;SDS011;42474;51.660;5.824;2022-08-25T20:33:03;13.3;;;11.2;;
56593;SDS011;42474;51.660;5.824;2022-08-25T20:38:04;19.2;;;14.3;;
56593;SDS011;42474;51.660;5.824;2022-08-25T20:43:04;19.3;;;16.0;;
56593;SDS011;42474;51.660;5.824;2022-08-25T20:48:05;22.7;;;20.0;;
56593;SDS011;42474;51.660;5.824;2022-08-25T20:53:04;26.0;;;21.8;;
56593;SDS011;42474;51.660;5.824;2022-08-25T20:58:04;28.7;;;25.0;;
56593;SDS011;42474;51.660;5.824;2022-08-25T21:03:04;35.2;;;29.5;;
56593;SDS011;42474;51.660;5.824;2022-08-25T21:08:04;35.8;;;31.4;;
56593;SDS011;42474;51.660;5.824;2022-08-25T21:13:04;36.6;;;31.3;;
56593;SDS011;42474;51.660;5.824;2022-08-25T21:18:04;40.9;;;33.6;;
56593;SDS011;42474;51.660;5.824;2022-08-25T21:23:04;38.5;;;33.9;;
56593;SDS011;42474;51.660;5.824;2022-08-25T21:28:04;40.5;;;34.6;;
56593;SDS011;42474;51.660;5.824;2022-08-25T21:33:04;44.2;;;36.3;;
56593;SDS011;42474;51.660;5.824;2022-08-25T21:38:04;44.2;;;36.5;;
56593;SDS011;42474;51.660;5.824;2022-08-25T21:43:04;45.0;;;38.4;;
56593;SDS011;42474;51.660;5.824;2022-08-25T21:48:04;47.7;;;39.9;;
56593;SDS011;42474;51.660;5.824;2022-08-25T21:53:04;45.8;;;39.2;;
56593;SDS011;42474;51.660;5.824;2022-08-25T21:58:04;48.7;;;39.9;;
56593;SDS011;42474;51.660;5.824;2022-08-25T22:03:04;49.3;;;39.7;;
56593;SDS011;42474;51.660;5.824;2022-08-25T22:08:04;46.0;;;39.2;;
56593;SDS011;42474;51.660;5.824;2022-08-25T22:13:04;46.4;;;38.4;;
56593;SDS011;42474;51.660;5.824;2022-08-25T22:18:04;49.9;;;40.5;;
56593;SDS011;42474;51.660;5.824;2022-08-25T22:23:04;51.1;;;38.0;;
56593;SDS011;42474;51.660;5.824;2022-08-25T22:28:04;44.5;;;36.3;;
56593;SDS011;42474;51.660;5.824;2022-08-25T22:33:04;44.6;;;35.7;;
56593;SDS011;42474;51.660;5.824;2022-08-25T22:38:04;42.4;;;35.8;;
56593;SDS011;42474;51.660;5.824;2022-08-25T22:43:04;39.8;;;31.3;;
56593;SDS011;42474;51.660;5.824;2022-08-25T22:48:04;34.6;;;29.5;;
56593;SDS011;42474;51.660;5.824;2022-08-25T22:53:04;36.3;;;28.7;;
56593;SDS011;42474;51.660;5.824;2022-08-25T22:58:04;28.8;;;24.9;;
56593;SDS011;42474;51.660;5.824;2022-08-25T23:03:04;25.3;;;20.4;;
56593;SDS011;42474;51.660;5.824;2022-08-25T23:08:04;24.2;;;18.8;;
56593;SDS011;42474;51.660;5.824;2022-08-25T23:13:04;21.9;;;18.0;;
56593;SDS011;42474;51.660;5.824;2022-08-25T23:18:04;20.8;;;16.8;;
56593;SDS011;42474;51.660;5.824;2022-08-25T23:23:04;20.6;;;16.6;;
56593;SDS011;42474;51.660;5.824;2022-08-25T23:28:04;19.9;;;15.4;;
56593;SDS011;42474;51.660;5.824;2022-08-25T23:33:04;18.0;;;15.1;;
56593;SDS011;42474;51.660;5.824;2022-08-25T23:38:04;18.2;;;14.7;;
56593;SDS011;42474;51.660;5.824;2022-08-25T23:43:04;16.4;;;13.7;;
56593;SDS011;42474;51.660;5.824;2022-08-25T23:48:04;15.8;;;13.2;;
56593;SDS011;42474;51.660;5.824;2022-08-25T23:53:04;19.2;;;14.1;;
56593;SDS011;42474;51.660;5.824;2022-08-25T23:58:04;17.0;;;12.2;;
